sensor_id;sensor_type;location;lat;lon;timestamp;P1;durP1;ratioP1;P2;durP2;ratioP2
8572;SDS011;4324;42.012;24.872;2022-09-09T00:01:58;6.70;;;6.20;;
8572;SDS011;4324;42.012;24.872;2022-09-09T00:04:31;6.37;;;5.90;;
8572;SDS011;4324;42.012;24.872;2022-09-09T00:07:01;7.37;;;6.63;;
8572;SDS011;4324;42.012;24.872;2022-09-09T00:09:34;7.10;;;6.50;;
8572;SDS011;4324;42.012;24.872;2022-09-09T00:12:09;6.53;;;6.03;;
8572;SDS011;4324;42.012;24.872;2022-09-09T00:14:42;6.93;;;6.33;;
8572;SDS011;4324;42.012;24.872;2022-09-09T00:17:19;7.20;;;6.50;;
8572;SDS011;4324;42.012;24.872;2022-09-09T00:19:59;7.30;;;6.80;;
8572;SDS011;4324;42.012;24.872;2022-09-09T00:22:32;6.60;;;6.10;;
8572;SDS011;4324;42.012;24.872;2022-09-09T00:25:02;7.20;;;6.17;;
8572;SDS011;4324;42.012;24.872;2022-09-09T00:27:37;7.97;;;7.13;;
8572;SDS011;4324;42.012;24.872;2022-09-09T00:30:14;7.37;;;6.87;;
8572;SDS011;4324;42.012;24.872;2022-09-09T00:32:45;7.63;;;7.03;;
8572;SDS011;4324;42.012;24.872;2022-09-09T00:35:18;7.50;;;6.70;;
8572;SDS011;4324;42.012;24.872;2022-09-09T00:37:50;7.00;;;6.50;;
8572;SDS011;4324;42.012;24.872;2022-09-09T00:40:25;7.20;;;6.70;;
8572;SDS011;4324;42.012;24.872;2022-09-09T00:45:57;7.50;;;6.90;;
8572;SDS011;4324;42.012;24.872;2022-09-09T00:48:34;9.50;;;8.17;;
8572;SDS011;4324;42.012;24.872;2022-09-09T00:51:13;9.23;;;8.43;;
8572;SDS011;4324;42.012;24.872;2022-09-09T00:56:45;10.30;;;9.40;;
8572;SDS011;4324;42.012;24.872;2022-09-09T00:59:22;10.63;;;9.63;;
8572;SDS011;4324;42.012;24.872;2022-09-09T01:01:54;9.87;;;8.97;;
8572;SDS011;4324;42.012;24.872;2022-09-09T01:04:24;14.47;;;10.33;;
8572;SDS011;4324;42.012;24.872;2022-09-09T01:07:03;11.03;;;9.97;;
8572;SDS011;4324;42.012;24.872;2022-09-09T01:09:44;11.57;;;10.33;;
8572;SDS011;4324;42.012;24.872;2022-09-09T01:12:23;11.23;;;10.10;;
8572;SDS011;4324;42.012;24.872;2022-09-09T01:14:53;10.83;;;9.77;;
8572;SDS011;4324;42.012;24.872;2022-09-09T01:17:30;10.83;;;9.77;;
8572;SDS011;4324;42.012;24.872;2022-09-09T01:20:06;10.57;;;9.53;;
8572;SDS011;4324;42.012;24.872;2022-09-09T01:22:43;10.77;;;9.67;;
8572;SDS011;4324;42.012;24.872;2022-09-09T01:25:21;10.30;;;9.40;;
8572;SDS011;4324;42.012;24.872;2022-09-09T01:27:55;11.43;;;10.23;;
8572;SDS011;4324;42.012;24.872;2022-09-09T01:30:25;11.33;;;10.07;;
8572;SDS011;4324;42.012;24.872;2022-09-09T01:32:54;12.13;;;10.33;;
8572;SDS011;4324;42.012;24.872;2022-09-09T01:35:28;11.10;;;9.90;;
8572;SDS011;4324;42.012;24.872;2022-09-09T01:37:59;11.77;;;10.60;;
8572;SDS011;4324;42.012;24.872;2022-09-09T01:40:26;11.43;;;10.33;;
8572;SDS011;4324;42.012;24.872;2022-09-09T01:42:53;11.77;;;9.20;;
8572;SDS011;4324;42.012;24.872;2022-09-09T01:45:22;10.73;;;9.63;;
8572;SDS011;4324;42.012;24.872;2022-09-09T01:47:51;11.73;;;10.03;;
8572;SDS011;4324;42.012;24.872;2022-09-09T01:50:18;11.87;;;10.40;;
8572;SDS011;4324;42.012;24.872;2022-09-09T01:52:47;11.50;;;10.47;;
8572;SDS011;4324;42.012;24.872;2022-09-09T01:55:16;11.67;;;10.50;;
8572;SDS011;4324;42.012;24.872;2022-09-09T01:57:50;12.23;;;11.07;;
8572;SDS011;4324;42.012;24.872;2022-09-09T02:00:27;12.63;;;11.33;;
8572;SDS011;4324;42.012;24.872;2022-09-09T02:02:58;13.83;;;12.33;;
8572;SDS011;4324;42.012;24.872;2022-09-09T02:05:31;14.57;;;13.17;;
8572;SDS011;4324;42.012;24.872;2022-09-09T02:08:03;15.13;;;11.73;;
8572;SDS011;4324;42.012;24.872;2022-09-09T02:10:35;20.83;;;13.10;;
8572;SDS011;4324;42.012;24.872;2022-09-09T02:13:11;18.00;;;13.33;;
8572;SDS011;4324;42.012;24.872;2022-09-09T02:15:42;18.43;;;12.47;;
8572;SDS011;4324;42.012;24.872;2022-09-09T02:18:17;14.50;;;13.00;;
8572;SDS011;4324;42.012;24.872;2022-09-09T02:20:50;12.80;;;11.70;;
8572;SDS011;4324;42.012;24.872;2022-09-09T02:23:19;13.57;;;12.37;;
8572;SDS011;4324;42.012;24.872;2022-09-09T02:25:47;14.63;;;13.37;;
8572;SDS011;4324;42.012;24.872;2022-09-09T02:28:18;14.93;;;13.20;;
8572;SDS011;4324;42.012;24.872;2022-09-09T02:30:49;13.20;;;11.90;;
8572;SDS011;4324;42.012;24.872;2022-09-09T02:33:20;14.77;;;13.37;;
8572;SDS011;4324;42.012;24.872;2022-09-09T02:35:51;14.20;;;12.90;;
8572;SDS011;4324;42.012;24.872;2022-09-09T02:38:21;15.13;;;13.07;;
8572;SDS011;4324;42.012;24.872;2022-09-09T02:40:53;14.70;;;13.00;;
8572;SDS011;4324;42.012;24.872;2022-09-09T02:43:21;15.53;;;14.17;;
8572;SDS011;4324;42.012;24.872;2022-09-09T02:45:51;16.40;;;12.53;;
8572;SDS011;4324;42.012;24.872;2022-09-09T02:48:27;14.07;;;12.60;;
8572;SDS011;4324;42.012;24.872;2022-09-09T02:51:01;14.03;;;12.63;;
8572;SDS011;4324;42.012;24.872;2022-09-09T02:53:37;18.63;;;14.23;;
8572;SDS011;4324;42.012;24.872;2022-09-09T02:56:11;13.70;;;12.30;;
8572;SDS011;4324;42.012;24.872;2022-09-09T02:58:43;14.07;;;12.53;;
8572;SDS011;4324;42.012;24.872;2022-09-09T03:01:11;14.07;;;12.33;;
8572;SDS011;4324;42.012;24.872;2022-09-09T03:03:39;13.20;;;11.90;;
8572;SDS011;4324;42.012;24.872;2022-09-09T03:06:06;14.07;;;12.57;;
8572;SDS011;4324;42.012;24.872;2022-09-09T03:08:33;14.20;;;12.67;;
8572;SDS011;4324;42.012;24.872;2022-09-09T03:11:00;14.60;;;12.30;;
8572;SDS011;4324;42.012;24.872;2022-09-09T03:13:27;16.33;;;14.63;;
8572;SDS011;4324;42.012;24.872;2022-09-09T03:15:56;20.53;;;14.03;;
8572;SDS011;4324;42.012;24.872;2022-09-09T03:18:22;13.67;;;12.40;;
8572;SDS011;4324;42.012;24.872;2022-09-09T03:20:50;15.27;;;12.63;;
8572;SDS011;4324;42.012;24.872;2022-09-09T03:23:19;14.47;;;13.17;;
8572;SDS011;4324;42.012;24.872;2022-09-09T03:25:47;16.97;;;12.10;;
8572;SDS011;4324;42.012;24.872;2022-09-09T03:28:14;14.70;;;11.50;;
8572;SDS011;4324;42.012;24.872;2022-09-09T03:30:41;19.33;;;14.30;;
8572;SDS011;4324;42.012;24.872;2022-09-09T03:33:10;17.20;;;13.43;;
8572;SDS011;4324;42.012;24.872;2022-09-09T03:35:37;15.70;;;13.43;;
8572;SDS011;4324;42.012;24.872;2022-09-09T03:38:04;18.77;;;14.07;;
8572;SDS011;4324;42.012;24.872;2022-09-09T03:40:31;14.60;;;12.47;;
8572;SDS011;4324;42.012;24.872;2022-09-09T03:42:58;15.83;;;13.03;;
8572;SDS011;4324;42.012;24.872;2022-09-09T03:45:25;17.70;;;11.90;;
8572;SDS011;4324;42.012;24.872;2022-09-09T03:47:52;11.03;;;10.03;;
8572;SDS011;4324;42.012;24.872;2022-09-09T03:50:20;11.73;;;10.77;;
8572;SDS011;4324;42.012;24.872;2022-09-09T03:52:48;10.10;;;9.10;;
8572;SDS011;4324;42.012;24.872;2022-09-09T03:55:15;14.30;;;12.80;;
8572;SDS011;4324;42.012;24.872;2022-09-09T03:57:42;20.90;;;15.53;;
8572;SDS011;4324;42.012;24.872;2022-09-09T04:00:09;13.77;;;11.67;;
8572;SDS011;4324;42.012;24.872;2022-09-09T04:02:37;15.37;;;12.53;;
8572;SDS011;4324;42.012;24.872;2022-09-09T04:05:04;15.33;;;13.73;;
8572;SDS011;4324;42.012;24.872;2022-09-09T04:07:33;14.73;;;12.00;;
8572;SDS011;4324;42.012;24.872;2022-09-09T04:10:00;16.50;;;11.47;;
8572;SDS011;4324;42.012;24.872;2022-09-09T04:12:30;15.97;;;13.23;;
8572;SDS011;4324;42.012;24.872;2022-09-09T04:14:57;14.30;;;12.17;;
8572;SDS011;4324;42.012;24.872;2022-09-09T04:17:28;17.47;;;11.70;;
8572;SDS011;4324;42.012;24.872;2022-09-09T04:19:55;17.30;;;11.60;;
8572;SDS011;4324;42.012;24.872;2022-09-09T04:22:22;10.37;;;9.37;;
8572;SDS011;4324;42.012;24.872;2022-09-09T04:24:51;8.83;;;7.80;;
8572;SDS011;4324;42.012;24.872;2022-09-09T04:27:18;10.60;;;9.70;;
8572;SDS011;4324;42.012;24.872;2022-09-09T04:29:46;10.73;;;9.73;;
8572;SDS011;4324;42.012;24.872;2022-09-09T04:32:13;17.87;;;12.97;;
8572;SDS011;4324;42.012;24.872;2022-09-09T04:34:40;14.50;;;12.20;;
8572;SDS011;4324;42.012;24.872;2022-09-09T04:37:07;14.33;;;12.47;;
8572;SDS011;4324;42.012;24.872;2022-09-09T04:39:34;13.87;;;11.97;;
8572;SDS011;4324;42.012;24.872;2022-09-09T04:42:03;14.30;;;12.43;;
8572;SDS011;4324;42.012;24.872;2022-09-09T04:44:30;13.60;;;12.27;;
8572;SDS011;4324;42.012;24.872;2022-09-09T04:46:57;15.70;;;13.00;;
8572;SDS011;4324;42.012;24.872;2022-09-09T04:49:27;12.23;;;11.03;;
8572;SDS011;4324;42.012;24.872;2022-09-09T04:52:18;16.67;;;13.43;;
8572;SDS011;4324;42.012;24.872;2022-09-09T04:54:45;16.93;;;15.13;;
8572;SDS011;4324;42.012;24.872;2022-09-09T04:57:14;18.20;;;16.33;;
8572;SDS011;4324;42.012;24.872;2022-09-09T04:59:41;16.23;;;14.27;;
8572;SDS011;4324;42.012;24.872;2022-09-09T05:02:08;10.43;;;9.43;;
8572;SDS011;4324;42.012;24.872;2022-09-09T05:04:35;11.83;;;10.73;;
8572;SDS011;4324;42.012;24.872;2022-09-09T05:07:02;11.13;;;10.07;;
8572;SDS011;4324;42.012;24.872;2022-09-09T05:09:29;12.87;;;11.47;;
8572;SDS011;4324;42.012;24.872;2022-09-09T05:11:55;12.33;;;11.23;;
8572;SDS011;4324;42.012;24.872;2022-09-09T05:14:24;14.43;;;13.00;;
8572;SDS011;4324;42.012;24.872;2022-09-09T05:16:51;14.23;;;12.07;;
8572;SDS011;4324;42.012;24.872;2022-09-09T05:19:18;13.47;;;12.07;;
8572;SDS011;4324;42.012;24.872;2022-09-09T05:21:45;12.83;;;11.57;;
8572;SDS011;4324;42.012;24.872;2022-09-09T05:24:28;16.80;;;14.33;;
8572;SDS011;4324;42.012;24.872;2022-09-09T05:27:01;14.07;;;12.77;;
8572;SDS011;4324;42.012;24.872;2022-09-09T05:29:29;13.73;;;12.33;;
8572;SDS011;4324;42.012;24.872;2022-09-09T05:31:58;12.53;;;11.50;;
8572;SDS011;4324;42.012;24.872;2022-09-09T05:34:25;14.10;;;11.73;;
8572;SDS011;4324;42.012;24.872;2022-09-09T05:36:52;12.83;;;11.63;;
8572;SDS011;4324;42.012;24.872;2022-09-09T05:39:19;13.30;;;12.03;;
8572;SDS011;4324;42.012;24.872;2022-09-09T05:41:46;12.70;;;11.43;;
8572;SDS011;4324;42.012;24.872;2022-09-09T05:44:13;14.40;;;10.50;;
8572;SDS011;4324;42.012;24.872;2022-09-09T05:46:42;13.33;;;11.00;;
8572;SDS011;4324;42.012;24.872;2022-09-09T05:49:12;16.70;;;12.30;;
8572;SDS011;4324;42.012;24.872;2022-09-09T05:51:41;20.47;;;12.10;;
8572;SDS011;4324;42.012;24.872;2022-09-09T05:54:09;20.67;;;11.80;;
8572;SDS011;4324;42.012;24.872;2022-09-09T05:56:43;18.13;;;11.13;;
8572;SDS011;4324;42.012;24.872;2022-09-09T05:59:10;15.73;;;11.33;;
8572;SDS011;4324;42.012;24.872;2022-09-09T06:01:37;17.43;;;13.03;;
8572;SDS011;4324;42.012;24.872;2022-09-09T06:04:06;19.67;;;14.13;;
8572;SDS011;4324;42.012;24.872;2022-09-09T06:06:34;18.23;;;16.33;;
8572;SDS011;4324;42.012;24.872;2022-09-09T06:09:07;20.87;;;17.93;;
8572;SDS011;4324;42.012;24.872;2022-09-09T06:11:37;21.43;;;17.30;;
8572;SDS011;4324;42.012;24.872;2022-09-09T06:14:05;19.70;;;17.60;;
8572;SDS011;4324;42.012;24.872;2022-09-09T06:16:33;17.23;;;15.43;;
8572;SDS011;4324;42.012;24.872;2022-09-09T06:19:20;16.63;;;15.00;;
8572;SDS011;4324;42.012;24.872;2022-09-09T06:21:49;18.40;;;14.97;;
8572;SDS011;4324;42.012;24.872;2022-09-09T06:24:16;17.30;;;15.57;;
8572;SDS011;4324;42.012;24.872;2022-09-09T06:26:45;16.80;;;14.27;;
8572;SDS011;4324;42.012;24.872;2022-09-09T06:29:12;22.53;;;15.50;;
8572;SDS011;4324;42.012;24.872;2022-09-09T06:31:41;20.73;;;17.47;;
8572;SDS011;4324;42.012;24.872;2022-09-09T06:34:09;14.80;;;13.20;;
8572;SDS011;4324;42.012;24.872;2022-09-09T06:36:37;14.90;;;13.33;;
8572;SDS011;4324;42.012;24.872;2022-09-09T06:39:06;14.97;;;13.00;;
8572;SDS011;4324;42.012;24.872;2022-09-09T06:41:33;14.67;;;13.27;;
8572;SDS011;4324;42.012;24.872;2022-09-09T06:44:01;14.63;;;13.23;;
8572;SDS011;4324;42.012;24.872;2022-09-09T06:46:30;16.87;;;13.43;;
8572;SDS011;4324;42.012;24.872;2022-09-09T06:49:01;17.60;;;15.73;;
8572;SDS011;4324;42.012;24.872;2022-09-09T06:51:29;15.80;;;13.80;;
8572;SDS011;4324;42.012;24.872;2022-09-09T06:53:59;14.80;;;12.87;;
8572;SDS011;4324;42.012;24.872;2022-09-09T06:56:28;14.23;;;12.73;;
8572;SDS011;4324;42.012;24.872;2022-09-09T06:58:56;14.70;;;13.13;;
8572;SDS011;4324;42.012;24.872;2022-09-09T07:01:26;16.87;;;15.23;;
8572;SDS011;4324;42.012;24.872;2022-09-09T07:03:55;14.20;;;12.90;;
8572;SDS011;4324;42.012;24.872;2022-09-09T07:06:24;14.07;;;12.60;;
8572;SDS011;4324;42.012;24.872;2022-09-09T07:08:53;13.87;;;12.43;;
8572;SDS011;4324;42.012;24.872;2022-09-09T07:11:23;15.73;;;13.13;;
8572;SDS011;4324;42.012;24.872;2022-09-09T07:13:52;13.73;;;12.53;;
8572;SDS011;4324;42.012;24.872;2022-09-09T07:16:20;17.60;;;15.87;;
8572;SDS011;4324;42.012;24.872;2022-09-09T07:18:49;16.30;;;14.37;;
8572;SDS011;4324;42.012;24.872;2022-09-09T07:21:19;16.03;;;14.23;;
8572;SDS011;4324;42.012;24.872;2022-09-09T07:23:49;48.27;;;36.07;;
8572;SDS011;4324;42.012;24.872;2022-09-09T07:26:17;15.57;;;12.57;;
8572;SDS011;4324;42.012;24.872;2022-09-09T07:28:56;19.60;;;16.80;;
8572;SDS011;4324;42.012;24.872;2022-09-09T07:31:24;40.77;;;36.20;;
8572;SDS011;4324;42.012;24.872;2022-09-09T07:33:53;19.37;;;17.47;;
8572;SDS011;4324;42.012;24.872;2022-09-09T07:36:21;14.77;;;12.87;;
8572;SDS011;4324;42.012;24.872;2022-09-09T07:38:51;13.83;;;12.47;;
8572;SDS011;4324;42.012;24.872;2022-09-09T07:41:21;15.37;;;13.57;;
8572;SDS011;4324;42.012;24.872;2022-09-09T07:43:52;14.03;;;12.53;;
8572;SDS011;4324;42.012;24.872;2022-09-09T07:46:20;16.90;;;13.13;;
8572;SDS011;4324;42.012;24.872;2022-09-09T07:48:49;13.53;;;12.17;;
8572;SDS011;4324;42.012;24.872;2022-09-09T07:51:18;15.40;;;13.80;;
8572;SDS011;4324;42.012;24.872;2022-09-09T07:53:47;14.30;;;12.90;;
8572;SDS011;4324;42.012;24.872;2022-09-09T07:56:18;13.57;;;12.30;;
8572;SDS011;4324;42.012;24.872;2022-09-09T07:58:48;13.93;;;12.60;;
8572;SDS011;4324;42.012;24.872;2022-09-09T08:01:18;14.40;;;12.90;;
8572;SDS011;4324;42.012;24.872;2022-09-09T08:03:46;16.20;;;14.60;;
8572;SDS011;4324;42.012;24.872;2022-09-09T08:06:18;18.90;;;16.93;;
8572;SDS011;4324;42.012;24.872;2022-09-09T08:08:49;14.70;;;13.50;;
8572;SDS011;4324;42.012;24.872;2022-09-09T08:11:16;13.93;;;12.33;;
8572;SDS011;4324;42.012;24.872;2022-09-09T08:13:44;15.63;;;14.13;;
8572;SDS011;4324;42.012;24.872;2022-09-09T08:16:12;15.73;;;14.07;;
8572;SDS011;4324;42.012;24.872;2022-09-09T08:18:51;14.57;;;13.27;;
8572;SDS011;4324;42.012;24.872;2022-09-09T08:21:20;16.63;;;15.00;;
8572;SDS011;4324;42.012;24.872;2022-09-09T08:23:50;14.47;;;13.07;;
8572;SDS011;4324;42.012;24.872;2022-09-09T08:26:19;15.10;;;13.67;;
8572;SDS011;4324;42.012;24.872;2022-09-09T08:28:47;25.97;;;14.53;;
8572;SDS011;4324;42.012;24.872;2022-09-09T08:31:17;17.97;;;13.70;;
8572;SDS011;4324;42.012;24.872;2022-09-09T08:33:49;15.07;;;13.67;;
8572;SDS011;4324;42.012;24.872;2022-09-09T08:36:21;16.10;;;14.60;;
8572;SDS011;4324;42.012;24.872;2022-09-09T08:39:08;14.50;;;13.03;;
8572;SDS011;4324;42.012;24.872;2022-09-09T08:41:55;13.33;;;12.03;;
8572;SDS011;4324;42.012;24.872;2022-09-09T08:44:41;13.70;;;12.30;;
8572;SDS011;4324;42.012;24.872;2022-09-09T08:47:22;13.73;;;12.43;;
8572;SDS011;4324;42.012;24.872;2022-09-09T08:50:01;15.37;;;13.13;;
8572;SDS011;4324;42.012;24.872;2022-09-09T08:52:47;13.97;;;12.77;;
8572;SDS011;4324;42.012;24.872;2022-09-09T08:55:21;13.00;;;11.90;;
8572;SDS011;4324;42.012;24.872;2022-09-09T08:57:55;13.03;;;12.00;;
8572;SDS011;4324;42.012;24.872;2022-09-09T09:00:27;15.67;;;14.37;;
8572;SDS011;4324;42.012;24.872;2022-09-09T09:03:02;13.13;;;11.93;;
8572;SDS011;4324;42.012;24.872;2022-09-09T09:05:40;12.83;;;11.83;;
8572;SDS011;4324;42.012;24.872;2022-09-09T09:08:16;14.43;;;13.07;;
8572;SDS011;4324;42.012;24.872;2022-09-09T09:10:51;14.13;;;12.87;;
8572;SDS011;4324;42.012;24.872;2022-09-09T09:13:24;17.30;;;15.53;;
8572;SDS011;4324;42.012;24.872;2022-09-09T09:16:06;15.53;;;13.37;;
8572;SDS011;4324;42.012;24.872;2022-09-09T09:19:07;13.70;;;12.40;;
8572;SDS011;4324;42.012;24.872;2022-09-09T09:21:42;13.57;;;12.43;;
8572;SDS011;4324;42.012;24.872;2022-09-09T09:24:14;13.30;;;12.20;;
8572;SDS011;4324;42.012;24.872;2022-09-09T09:26:48;13.60;;;12.30;;
8572;SDS011;4324;42.012;24.872;2022-09-09T09:29:24;14.43;;;13.13;;
8572;SDS011;4324;42.012;24.872;2022-09-09T09:31:52;15.83;;;14.00;;
8572;SDS011;4324;42.012;24.872;2022-09-09T09:34:21;14.63;;;13.10;;
8572;SDS011;4324;42.012;24.872;2022-09-09T09:36:53;13.90;;;12.80;;
8572;SDS011;4324;42.012;24.872;2022-09-09T09:39:29;14.43;;;13.07;;
8572;SDS011;4324;42.012;24.872;2022-09-09T09:42:10;13.73;;;12.60;;
8572;SDS011;4324;42.012;24.872;2022-09-09T09:48:54;12.07;;;11.07;;
8572;SDS011;4324;42.012;24.872;2022-09-09T09:51:48;13.33;;;12.13;;
8572;SDS011;4324;42.012;24.872;2022-09-09T09:54:32;14.57;;;13.37;;
8572;SDS011;4324;42.012;24.872;2022-09-09T09:57:22;12.27;;;11.27;;
8572;SDS011;4324;42.012;24.872;2022-09-09T10:00:00;14.17;;;12.93;;
8572;SDS011;4324;42.012;24.872;2022-09-09T10:02:49;13.43;;;12.33;;
8572;SDS011;4324;42.012;24.872;2022-09-09T10:05:29;12.43;;;11.40;;
8572;SDS011;4324;42.012;24.872;2022-09-09T10:08:09;12.33;;;11.13;;
8572;SDS011;4324;42.012;24.872;2022-09-09T10:14:30;12.13;;;11.07;;
8572;SDS011;4324;42.012;24.872;2022-09-09T10:17:22;11.40;;;10.50;;
8572;SDS011;4324;42.012;24.872;2022-09-09T10:20:12;11.33;;;10.20;;
8572;SDS011;4324;42.012;24.872;2022-09-09T10:23:33;11.33;;;10.43;;
8572;SDS011;4324;42.012;24.872;2022-09-09T10:26:13;11.60;;;10.50;;
8572;SDS011;4324;42.012;24.872;2022-09-09T10:29:04;11.67;;;10.70;;
8572;SDS011;4324;42.012;24.872;2022-09-09T10:31:47;10.97;;;10.07;;
8572;SDS011;4324;42.012;24.872;2022-09-09T10:35:08;11.57;;;10.63;;
8572;SDS011;4324;42.012;24.872;2022-09-09T10:37:59;10.80;;;9.80;;
8572;SDS011;4324;42.012;24.872;2022-09-09T10:40:44;10.40;;;9.50;;
8572;SDS011;4324;42.012;24.872;2022-09-09T10:43:28;9.77;;;9.07;;
8572;SDS011;4324;42.012;24.872;2022-09-09T10:46:28;10.40;;;9.53;;
8572;SDS011;4324;42.012;24.872;2022-09-09T10:49:07;10.63;;;9.63;;
8572;SDS011;4324;42.012;24.872;2022-09-09T10:51:51;10.03;;;9.03;;
8572;SDS011;4324;42.012;24.872;2022-09-09T10:54:30;10.33;;;9.33;;
8572;SDS011;4324;42.012;24.872;2022-09-09T10:57:10;8.73;;;8.00;;
8572;SDS011;4324;42.012;24.872;2022-09-09T10:59:47;10.17;;;9.27;;
8572;SDS011;4324;42.012;24.872;2022-09-09T11:02:31;10.30;;;8.87;;
8572;SDS011;4324;42.012;24.872;2022-09-09T11:05:00;9.83;;;9.00;;
8572;SDS011;4324;42.012;24.872;2022-09-09T11:07:39;8.87;;;8.10;;
8572;SDS011;4324;42.012;24.872;2022-09-09T11:10:14;8.17;;;7.47;;
8572;SDS011;4324;42.012;24.872;2022-09-09T11:12:51;8.87;;;8.17;;
8572;SDS011;4324;42.012;24.872;2022-09-09T11:15:23;9.33;;;8.50;;
8572;SDS011;4324;42.012;24.872;2022-09-09T11:17:56;9.33;;;8.53;;
8572;SDS011;4324;42.012;24.872;2022-09-09T11:20:30;8.87;;;8.07;;
8572;SDS011;4324;42.012;24.872;2022-09-09T11:23:13;9.77;;;8.97;;
8572;SDS011;4324;42.012;24.872;2022-09-09T11:25:44;9.50;;;8.80;;
8572;SDS011;4324;42.012;24.872;2022-09-09T11:28:31;8.97;;;8.17;;
8572;SDS011;4324;42.012;24.872;2022-09-09T11:31:16;9.40;;;8.10;;
8572;SDS011;4324;42.012;24.872;2022-09-09T11:34:10;9.57;;;8.33;;
8572;SDS011;4324;42.012;24.872;2022-09-09T11:40:22;9.57;;;8.70;;
8572;SDS011;4324;42.012;24.872;2022-09-09T11:43:00;8.83;;;7.93;;
8572;SDS011;4324;42.012;24.872;2022-09-09T11:45:35;8.77;;;8.07;;
8572;SDS011;4324;42.012;24.872;2022-09-09T11:48:03;8.93;;;8.13;;
8572;SDS011;4324;42.012;24.872;2022-09-09T11:50:46;8.60;;;7.90;;
8572;SDS011;4324;42.012;24.872;2022-09-09T11:53:27;9.03;;;8.37;;
8572;SDS011;4324;42.012;24.872;2022-09-09T11:56:05;9.63;;;8.67;;
8572;SDS011;4324;42.012;24.872;2022-09-09T11:58:53;9.37;;;8.47;;
8572;SDS011;4324;42.012;24.872;2022-09-09T12:01:39;10.90;;;9.90;;
8572;SDS011;4324;42.012;24.872;2022-09-09T12:04:16;10.70;;;9.60;;
8572;SDS011;4324;42.012;24.872;2022-09-09T12:06:54;9.27;;;8.43;;
8572;SDS011;4324;42.012;24.872;2022-09-09T12:09:29;10.93;;;9.60;;
8572;SDS011;4324;42.012;24.872;2022-09-09T12:12:21;9.00;;;8.23;;
8572;SDS011;4324;42.012;24.872;2022-09-09T12:17:52;9.53;;;8.83;;
8572;SDS011;4324;42.012;24.872;2022-09-09T12:20:40;10.00;;;9.30;;
8572;SDS011;4324;42.012;24.872;2022-09-09T12:24:05;9.73;;;9.00;;
8572;SDS011;4324;42.012;24.872;2022-09-09T12:26:36;8.90;;;8.27;;
8572;SDS011;4324;42.012;24.872;2022-09-09T12:29:12;10.53;;;9.47;;
8572;SDS011;4324;42.012;24.872;2022-09-09T12:31:53;9.93;;;9.03;;
8572;SDS011;4324;42.012;24.872;2022-09-09T12:34:32;15.53;;;10.43;;
8572;SDS011;4324;42.012;24.872;2022-09-09T12:37:04;10.10;;;9.20;;
8572;SDS011;4324;42.012;24.872;2022-09-09T12:39:38;10.13;;;9.23;;
8572;SDS011;4324;42.012;24.872;2022-09-09T12:42:18;9.83;;;8.83;;
8572;SDS011;4324;42.012;24.872;2022-09-09T12:44:55;9.53;;;8.47;;
8572;SDS011;4324;42.012;24.872;2022-09-09T12:47:26;9.43;;;8.67;;
8572;SDS011;4324;42.012;24.872;2022-09-09T12:50:14;9.20;;;8.33;;
8572;SDS011;4324;42.012;24.872;2022-09-09T12:52:43;10.43;;;9.30;;
8572;SDS011;4324;42.012;24.872;2022-09-09T12:55:16;9.63;;;8.63;;
8572;SDS011;4324;42.012;24.872;2022-09-09T12:57:47;12.07;;;11.17;;
8572;SDS011;4324;42.012;24.872;2022-09-09T13:00:17;9.70;;;8.90;;
8572;SDS011;4324;42.012;24.872;2022-09-09T13:02:49;9.43;;;8.30;;
8572;SDS011;4324;42.012;24.872;2022-09-09T13:05:23;12.87;;;8.97;;
8572;SDS011;4324;42.012;24.872;2022-09-09T13:08:00;9.17;;;8.33;;
8572;SDS011;4324;42.012;24.872;2022-09-09T13:10:28;8.87;;;8.07;;
8572;SDS011;4324;42.012;24.872;2022-09-09T13:13:01;10.60;;;8.63;;
8572;SDS011;4324;42.012;24.872;2022-09-09T13:15:28;9.30;;;8.30;;
8572;SDS011;4324;42.012;24.872;2022-09-09T13:17:56;9.50;;;8.67;;
8572;SDS011;4324;42.012;24.872;2022-09-09T13:20:27;8.93;;;8.20;;
8572;SDS011;4324;42.012;24.872;2022-09-09T13:22:56;11.23;;;8.90;;
8572;SDS011;4324;42.012;24.872;2022-09-09T13:25:24;9.13;;;8.43;;
8572;SDS011;4324;42.012;24.872;2022-09-09T13:27:54;8.83;;;8.03;;
8572;SDS011;4324;42.012;24.872;2022-09-09T13:30:24;9.67;;;8.87;;
8572;SDS011;4324;42.012;24.872;2022-09-09T13:33:00;10.30;;;9.30;;
8572;SDS011;4324;42.012;24.872;2022-09-09T13:35:33;8.80;;;8.00;;
8572;SDS011;4324;42.012;24.872;2022-09-09T13:38:06;8.90;;;8.17;;
8572;SDS011;4324;42.012;24.872;2022-09-09T13:40:35;11.47;;;9.50;;
8572;SDS011;4324;42.012;24.872;2022-09-09T13:43:05;10.10;;;9.30;;
8572;SDS011;4324;42.012;24.872;2022-09-09T13:45:52;10.83;;;9.93;;
8572;SDS011;4324;42.012;24.872;2022-09-09T13:48:23;11.10;;;10.10;;
8572;SDS011;4324;42.012;24.872;2022-09-09T13:50:56;11.00;;;8.93;;
8572;SDS011;4324;42.012;24.872;2022-09-09T13:53:24;14.77;;;10.67;;
8572;SDS011;4324;42.012;24.872;2022-09-09T13:55:52;14.13;;;11.53;;
8572;SDS011;4324;42.012;24.872;2022-09-09T13:58:19;10.87;;;9.83;;
8572;SDS011;4324;42.012;24.872;2022-09-09T14:00:48;9.77;;;8.80;;
8572;SDS011;4324;42.012;24.872;2022-09-09T14:03:15;11.50;;;10.50;;
8572;SDS011;4324;42.012;24.872;2022-09-09T14:05:51;10.97;;;9.87;;
8572;SDS011;4324;42.012;24.872;2022-09-09T14:08:41;10.60;;;9.70;;
8572;SDS011;4324;42.012;24.872;2022-09-09T14:11:12;9.80;;;9.00;;
8572;SDS011;4324;42.012;24.872;2022-09-09T14:13:52;10.40;;;9.50;;
8572;SDS011;4324;42.012;24.872;2022-09-09T14:16:29;9.67;;;8.87;;
8572;SDS011;4324;42.012;24.872;2022-09-09T14:18:56;10.13;;;9.33;;
8572;SDS011;4324;42.012;24.872;2022-09-09T14:21:25;12.50;;;9.93;;
8572;SDS011;4324;42.012;24.872;2022-09-09T14:23:53;10.30;;;9.20;;
8572;SDS011;4324;42.012;24.872;2022-09-09T14:26:20;10.40;;;9.50;;
8572;SDS011;4324;42.012;24.872;2022-09-09T14:28:49;11.40;;;10.50;;
8572;SDS011;4324;42.012;24.872;2022-09-09T14:31:19;10.30;;;9.40;;
8572;SDS011;4324;42.012;24.872;2022-09-09T14:33:46;10.13;;;9.33;;
8572;SDS011;4324;42.012;24.872;2022-09-09T14:36:13;10.50;;;9.50;;
8572;SDS011;4324;42.012;24.872;2022-09-09T14:38:51;11.13;;;10.07;;
8572;SDS011;4324;42.012;24.872;2022-09-09T14:41:18;10.80;;;9.90;;
8572;SDS011;4324;42.012;24.872;2022-09-09T14:43:48;12.70;;;11.20;;
8572;SDS011;4324;42.012;24.872;2022-09-09T14:46:18;11.57;;;10.57;;
8572;SDS011;4324;42.012;24.872;2022-09-09T14:48:46;10.97;;;10.07;;
8572;SDS011;4324;42.012;24.872;2022-09-09T14:52:22;10.50;;;9.57;;
8572;SDS011;4324;42.012;24.872;2022-09-09T14:54:32;11.63;;;9.90;;
8572;SDS011;4324;42.012;24.872;2022-09-09T14:56:59;11.87;;;10.70;;
8572;SDS011;4324;42.012;24.872;2022-09-09T14:59:26;12.80;;;11.60;;
8572;SDS011;4324;42.012;24.872;2022-09-09T15:01:53;12.73;;;11.73;;
8572;SDS011;4324;42.012;24.872;2022-09-09T15:04:20;12.33;;;10.97;;
8572;SDS011;4324;42.012;24.872;2022-09-09T15:06:47;12.73;;;11.53;;
8572;SDS011;4324;42.012;24.872;2022-09-09T15:09:17;12.00;;;10.97;;
8572;SDS011;4324;42.012;24.872;2022-09-09T15:11:48;13.77;;;12.43;;
8572;SDS011;4324;42.012;24.872;2022-09-09T15:14:15;14.43;;;13.13;;
8572;SDS011;4324;42.012;24.872;2022-09-09T15:16:42;13.00;;;11.83;;
8572;SDS011;4324;42.012;24.872;2022-09-09T15:19:09;12.97;;;11.97;;
8572;SDS011;4324;42.012;24.872;2022-09-09T15:21:37;13.27;;;12.20;;
8572;SDS011;4324;42.012;24.872;2022-09-09T15:24:04;12.77;;;11.63;;
8572;SDS011;4324;42.012;24.872;2022-09-09T15:26:33;13.23;;;12.07;;
8572;SDS011;4324;42.012;24.872;2022-09-09T15:29:02;15.20;;;12.33;;
8572;SDS011;4324;42.012;24.872;2022-09-09T15:31:30;13.20;;;12.00;;
8572;SDS011;4324;42.012;24.872;2022-09-09T15:33:59;12.67;;;11.50;;
8572;SDS011;4324;42.012;24.872;2022-09-09T15:36:28;12.87;;;11.63;;